Cumberland College, KY

01:02 PM EST on Februari 10, 2016 (GMT -0500)
South Corbin | | Change Station
CLOSE
Current Station
Personal Weather Stations
Location: Corbin, KY
Elevation: 1129 ft
Nearby Weather Stations

Elev 1129 ft 36.89 °N, 84.21 °W | Updated 0 second ago

Molnigt
Molnigt
18.7 °F
Feels Like 19 °F
N
2.0
Vind Växlande Vind from V/NV
Gusts 8.0 miles/tim

Idag
High -- | Low -- °F
--% Chance of Precip.
Yesterday
High -- | Low -- °F
Precip. -- tum
Lufttryck 30.12 tum
Sikt 9.0 miles
Molnigt Växlande molnighet 3000 ft
Molnigt 3800 ft
Vindavkylning 19 °F
Daggpunkt 13 °F
Luftfuktighet 79%
Rainfall 0.00 tum
Snow Depth Not available.
7:30 AM 6:11 PM
Första kvarteret, 6% visible
METAR KLOZ 101753Z AUTO 26014KT 9SM SCT030 OVC038 M08/M14 A3007 RMK AO2 SNE48 SLP197 P0000 60000 T10781139 11078 21089 51008
Lufttryck 30.12 tum
Sikt 9.0 miles
Molnigt Växlande molnighet 3000 ft
Molnigt 3800 ft
Vindavkylning 19 °F
Daggpunkt 13 °F
Luftfuktighet 79%
Rainfall 0.00 tum
Snow Depth Not available.
7:30 AM 6:11 PM
Första kvarteret, 6% visible
METAR KLOZ 101753Z AUTO 26014KT 9SM SCT030 OVC038 M08/M14 A3007 RMK AO2 SNE48 SLP197 P0000 60000 T10781139 11078 21089 51008

10-Day Weather Forecast

Almanac

Astronomi

Feb. 10, 2016 Rise Set
Actual Time
Civil Twilight
Nautical Twilight
Astronomical Twilight
Månen
Length Of Visible Light
Dagens längd
Tomorrow will be .
, % of the Moon is Illuminated

Today's Extremes

State Highs State Lows

Community

WunderPhotos

Upload Photos

1,891,904 photos uploaded!

WunderBlog® & News

Nearby

Air Quality

  Air Quality AQ Index Pollutant
Not available.

Snödjup

Station Depth Elevation

Earthquake Activity

Stad Distance Mag. Time & Date
Minimum magnitude displayed is 2.5.

Coastal Water Temperatures

Plats Temperatur

Stations

Nearby Weather Stations

Station Location Temp Vindavkylning Daggpunkt Luftfuktighet Vind Precip. Elev Uppdaterad Type
                   

Watches & Warnings

There are currently no watches in effect.